sensor_id;sensor_type;location;lat;lon;timestamp;P1;durP1;ratioP1;P2;durP2;ratioP2
44366;SDS011;30086;57.660;12.000;2022-11-15T00:01:22;6.82;;;5.05;;
44366;SDS011;30086;57.660;12.000;2022-11-15T00:03:50;7.93;;;5.13;;
44366;SDS011;30086;57.660;12.000;2022-11-15T00:06:19;8.82;;;5.70;;
44366;SDS011;30086;57.660;12.000;2022-11-15T00:08:45;8.52;;;6.10;;
44366;SDS011;30086;57.660;12.000;2022-11-15T00:11:12;10.98;;;5.47;;
44366;SDS011;30086;57.660;12.000;2022-11-15T00:13:38;8.75;;;5.20;;
44366;SDS011;30086;57.660;12.000;2022-11-15T00:16:05;9.38;;;5.70;;
44366;SDS011;30086;57.660;12.000;2022-11-15T00:18:31;9.75;;;5.45;;
44366;SDS011;30086;57.660;12.000;2022-11-15T00:21:05;8.93;;;5.35;;
44366;SDS011;30086;57.660;12.000;2022-11-15T00:23:36;8.88;;;5.88;;
44366;SDS011;30086;57.660;12.000;2022-11-15T00:26:04;11.10;;;6.15;;
44366;SDS011;30086;57.660;12.000;2022-11-15T00:28:30;10.10;;;6.00;;
44366;SDS011;30086;57.660;12.000;2022-11-15T00:31:00;10.55;;;5.82;;
44366;SDS011;30086;57.660;12.000;2022-11-15T00:33:27;10.00;;;5.85;;
44366;SDS011;30086;57.660;12.000;2022-11-15T00:35:59;7.88;;;5.35;;
44366;SDS011;30086;57.660;12.000;2022-11-15T00:38:30;9.27;;;6.07;;
44366;SDS011;30086;57.660;12.000;2022-11-15T00:40:56;8.93;;;5.18;;
44366;SDS011;30086;57.660;12.000;2022-11-15T00:43:31;9.18;;;5.75;;
44366;SDS011;30086;57.660;12.000;2022-11-15T00:46:20;9.85;;;6.03;;
44366;SDS011;30086;57.660;12.000;2022-11-15T00:48:56;9.38;;;6.10;;
44366;SDS011;30086;57.660;12.000;2022-11-15T00:51:23;9.23;;;5.95;;
44366;SDS011;30086;57.660;12.000;2022-11-15T00:53:49;9.93;;;6.03;;
44366;SDS011;30086;57.660;12.000;2022-11-15T00:56:15;8.05;;;5.28;;
44366;SDS011;30086;57.660;12.000;2022-11-15T00:58:41;8.63;;;5.97;;
44366;SDS011;30086;57.660;12.000;2022-11-15T01:01:14;11.80;;;6.22;;
44366;SDS011;30086;57.660;12.000;2022-11-15T01:03:43;9.48;;;5.63;;
44366;SDS011;30086;57.660;12.000;2022-11-15T01:06:10;14.25;;;7.32;;
44366;SDS011;30086;57.660;12.000;2022-11-15T01:08:40;11.07;;;6.07;;
44366;SDS011;30086;57.660;12.000;2022-11-15T01:11:10;9.27;;;5.75;;
44366;SDS011;30086;57.660;12.000;2022-11-15T01:13:38;12.68;;;5.90;;
44366;SDS011;30086;57.660;12.000;2022-11-15T01:16:06;9.90;;;6.22;;
44366;SDS011;30086;57.660;12.000;2022-11-15T01:18:33;8.30;;;5.63;;
44366;SDS011;30086;57.660;12.000;2022-11-15T01:21:05;8.13;;;5.50;;
44366;SDS011;30086;57.660;12.000;2022-11-15T01:23:31;10.15;;;5.85;;
44366;SDS011;30086;57.660;12.000;2022-11-15T01:26:02;9.02;;;5.80;;
44366;SDS011;30086;57.660;12.000;2022-11-15T01:28:30;8.73;;;5.65;;
44366;SDS011;30086;57.660;12.000;2022-11-15T01:30:59;10.23;;;5.47;;
44366;SDS011;30086;57.660;12.000;2022-11-15T01:33:45;12.15;;;5.53;;
44366;SDS011;30086;57.660;12.000;2022-11-15T01:36:15;8.98;;;5.72;;
44366;SDS011;30086;57.660;12.000;2022-11-15T01:38:42;8.20;;;5.22;;
44366;SDS011;30086;57.660;12.000;2022-11-15T01:41:15;7.97;;;5.22;;
44366;SDS011;30086;57.660;12.000;2022-11-15T01:43:42;9.65;;;5.75;;
44366;SDS011;30086;57.660;12.000;2022-11-15T01:46:19;8.18;;;5.65;;
44366;SDS011;30086;57.660;12.000;2022-11-15T01:48:48;11.50;;;6.10;;
44366;SDS011;30086;57.660;12.000;2022-11-15T01:51:16;12.38;;;5.32;;
44366;SDS011;30086;57.660;12.000;2022-11-15T01:53:44;11.95;;;5.60;;
44366;SDS011;30086;57.660;12.000;2022-11-15T01:56:12;9.68;;;5.60;;
44366;SDS011;30086;57.660;12.000;2022-11-15T01:58:39;11.77;;;5.70;;
44366;SDS011;30086;57.660;12.000;2022-11-15T02:01:06;11.18;;;5.78;;
44366;SDS011;30086;57.660;12.000;2022-11-15T02:03:56;8.43;;;5.40;;
44366;SDS011;30086;57.660;12.000;2022-11-15T02:06:20;8.80;;;5.50;;
44366;SDS011;30086;57.660;12.000;2022-11-15T02:08:55;9.27;;;6.85;;
44366;SDS011;30086;57.660;12.000;2022-11-15T02:11:22;13.13;;;6.30;;
44366;SDS011;30086;57.660;12.000;2022-11-15T02:13:50;9.75;;;6.00;;
44366;SDS011;30086;57.660;12.000;2022-11-15T02:16:28;9.85;;;5.97;;
44366;SDS011;30086;57.660;12.000;2022-11-15T02:32:54;10.57;;;5.95;;
44366;SDS011;30086;57.660;12.000;2022-11-15T02:37:51;8.70;;;5.25;;
44366;SDS011;30086;57.660;12.000;2022-11-15T02:40:57;9.55;;;6.53;;
44366;SDS011;30086;57.660;12.000;2022-11-15T02:44:00;9.00;;;5.90;;
44366;SDS011;30086;57.660;12.000;2022-11-15T02:49:24;8.57;;;5.22;;
44366;SDS011;30086;57.660;12.000;2022-11-15T02:51:51;11.45;;;5.82;;
44366;SDS011;30086;57.660;12.000;2022-11-15T02:54:28;9.35;;;5.68;;
44366;SDS011;30086;57.660;12.000;2022-11-15T02:57:00;12.27;;;6.10;;
44366;SDS011;30086;57.660;12.000;2022-11-15T03:02:02;9.48;;;6.00;;
44366;SDS011;30086;57.660;12.000;2022-11-15T03:07:43;10.50;;;6.10;;
44366;SDS011;30086;57.660;12.000;2022-11-15T03:09:55;8.32;;;6.72;;
44366;SDS011;30086;57.660;12.000;2022-11-15T03:15:20;12.02;;;6.32;;
44366;SDS011;30086;57.660;12.000;2022-11-15T03:20:23;10.32;;;6.22;;
44366;SDS011;30086;57.660;12.000;2022-11-15T03:22:51;10.40;;;7.10;;
44366;SDS011;30086;57.660;12.000;2022-11-15T03:25:19;7.97;;;6.22;;
44366;SDS011;30086;57.660;12.000;2022-11-15T03:27:48;10.32;;;6.78;;
44366;SDS011;30086;57.660;12.000;2022-11-15T03:30:16;10.48;;;6.72;;
44366;SDS011;30086;57.660;12.000;2022-11-15T03:32:49;9.73;;;7.07;;
44366;SDS011;30086;57.660;12.000;2022-11-15T03:35:20;9.60;;;6.75;;
44366;SDS011;30086;57.660;12.000;2022-11-15T03:42:58;11.48;;;7.35;;
44366;SDS011;30086;57.660;12.000;2022-11-15T03:45:29;13.40;;;7.40;;
44366;SDS011;30086;57.660;12.000;2022-11-15T03:47:59;11.85;;;7.22;;
44366;SDS011;30086;57.660;12.000;2022-11-15T03:50:27;9.00;;;6.90;;
44366;SDS011;30086;57.660;12.000;2022-11-15T03:52:54;10.70;;;7.25;;
44366;SDS011;30086;57.660;12.000;2022-11-15T03:55:22;10.68;;;6.50;;
44366;SDS011;30086;57.660;12.000;2022-11-15T03:57:49;10.10;;;6.68;;
44366;SDS011;30086;57.660;12.000;2022-11-15T04:00:16;13.27;;;7.88;;
44366;SDS011;30086;57.660;12.000;2022-11-15T04:02:42;12.45;;;8.00;;
44366;SDS011;30086;57.660;12.000;2022-11-15T04:05:08;9.93;;;7.93;;
44366;SDS011;30086;57.660;12.000;2022-11-15T04:07:34;10.68;;;7.43;;
44366;SDS011;30086;57.660;12.000;2022-11-15T04:10:02;12.45;;;8.05;;
44366;SDS011;30086;57.660;12.000;2022-11-15T04:12:39;12.00;;;9.13;;
44366;SDS011;30086;57.660;12.000;2022-11-15T04:17:41;15.93;;;9.30;;
44366;SDS011;30086;57.660;12.000;2022-11-15T04:20:09;13.90;;;8.85;;
44366;SDS011;30086;57.660;12.000;2022-11-15T04:22:55;16.52;;;8.98;;
44366;SDS011;30086;57.660;12.000;2022-11-15T04:25:39;16.02;;;8.93;;
44366;SDS011;30086;57.660;12.000;2022-11-15T04:28:06;15.90;;;8.52;;
44366;SDS011;30086;57.660;12.000;2022-11-15T04:30:32;14.23;;;8.27;;
44366;SDS011;30086;57.660;12.000;2022-11-15T04:32:58;11.85;;;8.23;;
44366;SDS011;30086;57.660;12.000;2022-11-15T04:35:24;13.45;;;9.05;;
44366;SDS011;30086;57.660;12.000;2022-11-15T04:37:50;11.88;;;7.78;;
44366;SDS011;30086;57.660;12.000;2022-11-15T04:40:16;15.43;;;9.70;;
44366;SDS011;30086;57.660;12.000;2022-11-15T04:42:43;15.65;;;8.95;;
44366;SDS011;30086;57.660;12.000;2022-11-15T04:45:13;13.85;;;8.43;;
44366;SDS011;30086;57.660;12.000;2022-11-15T04:47:40;15.80;;;9.70;;
44366;SDS011;30086;57.660;12.000;2022-11-15T04:50:06;16.17;;;8.55;;
44366;SDS011;30086;57.660;12.000;2022-11-15T04:52:33;13.98;;;8.20;;
44366;SDS011;30086;57.660;12.000;2022-11-15T04:54:59;12.80;;;8.70;;
44366;SDS011;30086;57.660;12.000;2022-11-15T04:57:25;14.55;;;8.82;;
44366;SDS011;30086;57.660;12.000;2022-11-15T04:59:53;14.57;;;8.73;;
44366;SDS011;30086;57.660;12.000;2022-11-15T05:02:23;12.10;;;8.60;;
44366;SDS011;30086;57.660;12.000;2022-11-15T05:05:09;12.38;;;8.13;;
44366;SDS011;30086;57.660;12.000;2022-11-15T05:07:36;14.27;;;8.48;;
44366;SDS011;30086;57.660;12.000;2022-11-15T05:10:02;13.23;;;7.95;;
44366;SDS011;30086;57.660;12.000;2022-11-15T05:12:30;13.80;;;7.47;;
44366;SDS011;30086;57.660;12.000;2022-11-15T05:14:56;12.52;;;8.00;;
44366;SDS011;30086;57.660;12.000;2022-11-15T05:17:22;11.75;;;7.65;;
44366;SDS011;30086;57.660;12.000;2022-11-15T05:19:48;11.45;;;7.50;;
44366;SDS011;30086;57.660;12.000;2022-11-15T05:22:16;11.88;;;7.55;;
44366;SDS011;30086;57.660;12.000;2022-11-15T05:24:42;11.70;;;7.07;;
44366;SDS011;30086;57.660;12.000;2022-11-15T05:27:08;14.00;;;7.43;;
44366;SDS011;30086;57.660;12.000;2022-11-15T05:29:34;10.88;;;7.25;;
44366;SDS011;30086;57.660;12.000;2022-11-15T05:32:00;11.05;;;6.85;;
44366;SDS011;30086;57.660;12.000;2022-11-15T05:34:27;10.85;;;7.43;;
44366;SDS011;30086;57.660;12.000;2022-11-15T05:36:55;16.27;;;7.55;;
44366;SDS011;30086;57.660;12.000;2022-11-15T05:39:22;15.30;;;7.32;;
44366;SDS011;30086;57.660;12.000;2022-11-15T05:41:52;16.25;;;7.70;;
44366;SDS011;30086;57.660;12.000;2022-11-15T05:44:19;13.02;;;6.65;;
44366;SDS011;30086;57.660;12.000;2022-11-15T05:46:56;15.93;;;8.15;;
44366;SDS011;30086;57.660;12.000;2022-11-15T05:49:27;13.95;;;8.10;;
44366;SDS011;30086;57.660;12.000;2022-11-15T05:52:05;12.50;;;7.70;;
44366;SDS011;30086;57.660;12.000;2022-11-15T05:54:37;10.63;;;6.97;;
44366;SDS011;30086;57.660;12.000;2022-11-15T05:57:04;15.93;;;7.88;;
44366;SDS011;30086;57.660;12.000;2022-11-15T05:59:31;13.02;;;6.93;;
44366;SDS011;30086;57.660;12.000;2022-11-15T06:02:17;13.38;;;7.22;;
44366;SDS011;30086;57.660;12.000;2022-11-15T06:04:50;20.80;;;7.50;;
44366;SDS011;30086;57.660;12.000;2022-11-15T06:08:00;12.30;;;7.30;;
44366;SDS011;30086;57.660;12.000;2022-11-15T06:10:28;14.60;;;8.50;;
44366;SDS011;30086;57.660;12.000;2022-11-15T06:13:00;16.83;;;8.40;;
44366;SDS011;30086;57.660;12.000;2022-11-15T06:15:47;13.23;;;7.60;;
44366;SDS011;30086;57.660;12.000;2022-11-15T06:18:16;15.73;;;8.60;;
44366;SDS011;30086;57.660;12.000;2022-11-15T06:20:42;11.73;;;7.07;;
44366;SDS011;30086;57.660;12.000;2022-11-15T06:23:09;11.88;;;7.13;;
44366;SDS011;30086;57.660;12.000;2022-11-15T06:25:47;12.05;;;6.93;;
44366;SDS011;30086;57.660;12.000;2022-11-15T06:28:13;13.05;;;6.35;;
44366;SDS011;30086;57.660;12.000;2022-11-15T06:30:40;9.27;;;6.78;;
44366;SDS011;30086;57.660;12.000;2022-11-15T06:33:15;12.05;;;7.60;;
44366;SDS011;30086;57.660;12.000;2022-11-15T06:36:05;12.15;;;7.38;;
44366;SDS011;30086;57.660;12.000;2022-11-15T06:38:33;10.57;;;6.00;;
44366;SDS011;30086;57.660;12.000;2022-11-15T06:41:02;14.45;;;7.05;;
44366;SDS011;30086;57.660;12.000;2022-11-15T06:43:31;10.70;;;6.05;;
44366;SDS011;30086;57.660;12.000;2022-11-15T06:46:25;12.00;;;6.55;;
44366;SDS011;30086;57.660;12.000;2022-11-15T06:49:16;8.60;;;6.00;;
44366;SDS011;30086;57.660;12.000;2022-11-15T06:51:43;12.52;;;6.60;;
44366;SDS011;30086;57.660;12.000;2022-11-15T06:54:54;13.00;;;6.57;;
44366;SDS011;30086;57.660;12.000;2022-11-15T06:57:21;12.98;;;7.20;;
44366;SDS011;30086;57.660;12.000;2022-11-15T06:59:47;10.63;;;6.38;;
44366;SDS011;30086;57.660;12.000;2022-11-15T07:02:13;9.45;;;6.57;;
44366;SDS011;30086;57.660;12.000;2022-11-15T07:04:43;12.98;;;6.97;;
44366;SDS011;30086;57.660;12.000;2022-11-15T07:07:13;13.73;;;7.28;;
44366;SDS011;30086;57.660;12.000;2022-11-15T07:09:42;10.25;;;6.30;;
44366;SDS011;30086;57.660;12.000;2022-11-15T07:12:28;14.25;;;6.95;;
44366;SDS011;30086;57.660;12.000;2022-11-15T07:14:56;9.48;;;6.15;;
44366;SDS011;30086;57.660;12.000;2022-11-15T07:17:22;10.80;;;5.82;;
44366;SDS011;30086;57.660;12.000;2022-11-15T07:19:48;15.27;;;6.80;;
44366;SDS011;30086;57.660;12.000;2022-11-15T07:22:14;9.07;;;5.90;;
44366;SDS011;30086;57.660;12.000;2022-11-15T07:24:44;7.88;;;5.05;;
44366;SDS011;30086;57.660;12.000;2022-11-15T07:27:11;10.48;;;5.40;;
44366;SDS011;30086;57.660;12.000;2022-11-15T07:29:37;8.95;;;5.75;;
44366;SDS011;30086;57.660;12.000;2022-11-15T07:32:07;11.48;;;5.82;;
44366;SDS011;30086;57.660;12.000;2022-11-15T07:34:33;9.45;;;5.28;;
44366;SDS011;30086;57.660;12.000;2022-11-15T07:37:19;10.82;;;5.05;;
44366;SDS011;30086;57.660;12.000;2022-11-15T07:39:45;8.57;;;5.80;;
44366;SDS011;30086;57.660;12.000;2022-11-15T07:42:12;10.30;;;5.35;;
44366;SDS011;30086;57.660;12.000;2022-11-15T07:45:05;10.27;;;5.15;;
44366;SDS011;30086;57.660;12.000;2022-11-15T07:47:33;9.18;;;4.97;;
44366;SDS011;30086;57.660;12.000;2022-11-15T07:50:00;8.52;;;5.40;;
44366;SDS011;30086;57.660;12.000;2022-11-15T07:52:57;7.97;;;4.95;;
44366;SDS011;30086;57.660;12.000;2022-11-15T07:55:32;8.10;;;5.70;;
44366;SDS011;30086;57.660;12.000;2022-11-15T07:58:22;8.98;;;5.38;;
44366;SDS011;30086;57.660;12.000;2022-11-15T08:01:09;9.57;;;5.40;;
44366;SDS011;30086;57.660;12.000;2022-11-15T08:03:35;8.30;;;5.10;;
44366;SDS011;30086;57.660;12.000;2022-11-15T08:06:02;8.50;;;5.25;;
44366;SDS011;30086;57.660;12.000;2022-11-15T08:08:28;7.57;;;5.25;;
44366;SDS011;30086;57.660;12.000;2022-11-15T08:10:56;10.80;;;5.70;;
44366;SDS011;30086;57.660;12.000;2022-11-15T08:13:23;7.53;;;5.40;;
44366;SDS011;30086;57.660;12.000;2022-11-15T08:15:49;9.82;;;5.05;;
44366;SDS011;30086;57.660;12.000;2022-11-15T08:18:15;7.88;;;5.40;;
44366;SDS011;30086;57.660;12.000;2022-11-15T08:20:42;8.27;;;5.45;;
44366;SDS011;30086;57.660;12.000;2022-11-15T08:23:10;6.80;;;4.75;;
44366;SDS011;30086;57.660;12.000;2022-11-15T08:25:37;9.10;;;5.32;;
44366;SDS011;30086;57.660;12.000;2022-11-15T08:28:04;8.50;;;5.32;;
44366;SDS011;30086;57.660;12.000;2022-11-15T08:30:36;9.63;;;5.38;;
44366;SDS011;30086;57.660;12.000;2022-11-15T08:33:03;9.80;;;4.63;;
44366;SDS011;30086;57.660;12.000;2022-11-15T08:35:29;6.85;;;4.35;;
44366;SDS011;30086;57.660;12.000;2022-11-15T08:37:57;10.27;;;5.55;;
44366;SDS011;30086;57.660;12.000;2022-11-15T08:40:23;6.78;;;4.63;;
44366;SDS011;30086;57.660;12.000;2022-11-15T08:42:49;8.25;;;4.97;;
44366;SDS011;30086;57.660;12.000;2022-11-15T08:45:15;9.00;;;5.47;;
44366;SDS011;30086;57.660;12.000;2022-11-15T08:47:45;6.93;;;5.00;;
44366;SDS011;30086;57.660;12.000;2022-11-15T08:50:17;7.63;;;5.15;;
44366;SDS011;30086;57.660;12.000;2022-11-15T08:52:46;9.80;;;5.97;;
44366;SDS011;30086;57.660;12.000;2022-11-15T08:55:17;8.50;;;6.28;;
44366;SDS011;30086;57.660;12.000;2022-11-15T08:57:43;6.97;;;4.70;;
44366;SDS011;30086;57.660;12.000;2022-11-15T09:00:09;9.00;;;5.00;;
44366;SDS011;30086;57.660;12.000;2022-11-15T09:02:39;8.15;;;4.85;;
44366;SDS011;30086;57.660;12.000;2022-11-15T09:05:06;10.55;;;5.25;;
44366;SDS011;30086;57.660;12.000;2022-11-15T09:07:38;8.68;;;4.75;;
44366;SDS011;30086;57.660;12.000;2022-11-15T09:10:04;8.65;;;5.00;;
44366;SDS011;30086;57.660;12.000;2022-11-15T09:12:32;7.10;;;4.70;;
44366;SDS011;30086;57.660;12.000;2022-11-15T09:15:02;10.27;;;4.97;;
44366;SDS011;30086;57.660;12.000;2022-11-15T09:17:31;11.57;;;5.53;;
44366;SDS011;30086;57.660;12.000;2022-11-15T09:19:57;8.00;;;5.25;;
44366;SDS011;30086;57.660;12.000;2022-11-15T09:22:24;8.23;;;5.00;;
44366;SDS011;30086;57.660;12.000;2022-11-15T09:24:52;8.15;;;5.30;;
44366;SDS011;30086;57.660;12.000;2022-11-15T09:27:19;10.73;;;6.22;;
44366;SDS011;30086;57.660;12.000;2022-11-15T09:29:50;7.07;;;4.82;;
44366;SDS011;30086;57.660;12.000;2022-11-15T09:32:20;7.88;;;5.05;;
44366;SDS011;30086;57.660;12.000;2022-11-15T09:35:07;6.82;;;3.80;;
44366;SDS011;30086;57.660;12.000;2022-11-15T09:37:34;11.48;;;4.40;;
44366;SDS011;30086;57.660;12.000;2022-11-15T09:40:08;8.25;;;5.03;;
44366;SDS011;30086;57.660;12.000;2022-11-15T09:45:28;8.18;;;5.00;;
44366;SDS011;30086;57.660;12.000;2022-11-15T09:50:51;8.38;;;4.82;;
44366;SDS011;30086;57.660;12.000;2022-11-15T09:53:48;12.90;;;4.75;;
44366;SDS011;30086;57.660;12.000;2022-11-15T09:56:29;7.30;;;5.07;;
44366;SDS011;30086;57.660;12.000;2022-11-15T10:01:32;9.50;;;4.88;;
44366;SDS011;30086;57.660;12.000;2022-11-15T10:04:02;11.05;;;4.85;;
44366;SDS011;30086;57.660;12.000;2022-11-15T10:06:38;9.73;;;5.15;;
44366;SDS011;30086;57.660;12.000;2022-11-15T10:09:22;13.68;;;5.20;;
44366;SDS011;30086;57.660;12.000;2022-11-15T10:11:49;7.13;;;4.20;;
44366;SDS011;30086;57.660;12.000;2022-11-15T10:14:24;9.25;;;4.90;;
44366;SDS011;30086;57.660;12.000;2022-11-15T10:17:13;7.65;;;4.63;;
44366;SDS011;30086;57.660;12.000;2022-11-15T10:22:40;9.55;;;5.38;;
44366;SDS011;30086;57.660;12.000;2022-11-15T10:25:31;7.97;;;5.30;;
44366;SDS011;30086;57.660;12.000;2022-11-15T10:28:27;8.55;;;5.68;;
44366;SDS011;30086;57.660;12.000;2022-11-15T10:30:57;8.18;;;4.90;;
44366;SDS011;30086;57.660;12.000;2022-11-15T10:33:45;8.70;;;4.78;;
44366;SDS011;30086;57.660;12.000;2022-11-15T10:36:31;11.47;;;5.07;;
44366;SDS011;30086;57.660;12.000;2022-11-15T10:39:10;8.95;;;4.82;;
44366;SDS011;30086;57.660;12.000;2022-11-15T10:41:42;7.93;;;4.57;;
44366;SDS011;30086;57.660;12.000;2022-11-15T10:44:42;11.38;;;4.90;;
44366;SDS011;30086;57.660;12.000;2022-11-15T10:47:04;7.18;;;4.70;;
44366;SDS011;30086;57.660;12.000;2022-11-15T10:49:42;6.00;;;4.50;;
44366;SDS011;30086;57.660;12.000;2022-11-15T10:52:43;7.18;;;4.80;;
44366;SDS011;30086;57.660;12.000;2022-11-15T10:55:25;9.77;;;5.28;;
44366;SDS011;30086;57.660;12.000;2022-11-15T10:58:06;7.13;;;4.55;;
44366;SDS011;30086;57.660;12.000;2022-11-15T11:00:53;7.55;;;4.07;;
44366;SDS011;30086;57.660;12.000;2022-11-15T11:04:05;6.78;;;5.00;;
44366;SDS011;30086;57.660;12.000;2022-11-15T11:06:58;8.77;;;4.03;;
44366;SDS011;30086;57.660;12.000;2022-11-15T11:09:56;6.13;;;4.22;;
44366;SDS011;30086;57.660;12.000;2022-11-15T11:12:27;10.88;;;4.63;;
44366;SDS011;30086;57.660;12.000;2022-11-15T11:14:55;7.43;;;5.05;;
44366;SDS011;30086;57.660;12.000;2022-11-15T11:17:43;8.45;;;4.55;;
44366;SDS011;30086;57.660;12.000;2022-11-15T11:20:22;6.30;;;4.13;;
44366;SDS011;30086;57.660;12.000;2022-11-15T11:42:10;9.70;;;5.05;;
44366;SDS011;30086;57.660;12.000;2022-11-15T11:47:15;7.70;;;4.10;;
44366;SDS011;30086;57.660;12.000;2022-11-15T11:49:52;8.57;;;4.03;;
44366;SDS011;30086;57.660;12.000;2022-11-15T11:52:38;5.97;;;3.72;;
44366;SDS011;30086;57.660;12.000;2022-11-15T12:01:18;5.57;;;3.60;;
44366;SDS011;30086;57.660;12.000;2022-11-15T12:04:32;6.07;;;3.10;;
44366;SDS011;30086;57.660;12.000;2022-11-15T12:07:24;4.75;;;3.38;;
44366;SDS011;30086;57.660;12.000;2022-11-15T12:10:23;4.78;;;3.35;;
44366;SDS011;30086;57.660;12.000;2022-11-15T12:13:04;4.65;;;3.15;;
44366;SDS011;30086;57.660;12.000;2022-11-15T12:18:33;6.55;;;2.85;;
44366;SDS011;30086;57.660;12.000;2022-11-15T12:21:41;5.43;;;3.03;;
44366;SDS011;30086;57.660;12.000;2022-11-15T12:24:54;4.97;;;2.85;;
44366;SDS011;30086;57.660;12.000;2022-11-15T12:28:06;4.43;;;2.75;;
44366;SDS011;30086;57.660;12.000;2022-11-15T12:31:38;5.85;;;3.33;;
44366;SDS011;30086;57.660;12.000;2022-11-15T12:36:57;3.60;;;2.83;;
44366;SDS011;30086;57.660;12.000;2022-11-15T12:40:18;5.93;;;3.15;;
44366;SDS011;30086;57.660;12.000;2022-11-15T12:43:03;3.90;;;2.50;;
44366;SDS011;30086;57.660;12.000;2022-11-15T12:51:10;5.95;;;2.65;;
44366;SDS011;30086;57.660;12.000;2022-11-15T12:54:22;4.65;;;2.50;;
44366;SDS011;30086;57.660;12.000;2022-11-15T13:02:33;5.00;;;2.95;;
44366;SDS011;30086;57.660;12.000;2022-11-15T13:28:20;4.15;;;1.92;;
44366;SDS011;30086;57.660;12.000;2022-11-15T13:30:56;4.55;;;2.20;;
44366;SDS011;30086;57.660;12.000;2022-11-15T13:33:35;4.05;;;2.20;;
44366;SDS011;30086;57.660;12.000;2022-11-15T13:38:38;2.70;;;2.15;;
44366;SDS011;30086;57.660;12.000;2022-11-15T13:41:19;2.30;;;1.58;;
44366;SDS011;30086;57.660;12.000;2022-11-15T13:43:49;4.55;;;4.25;;
44366;SDS011;30086;57.660;12.000;2022-11-15T13:49:02;5.82;;;1.58;;
44366;SDS011;30086;57.660;12.000;2022-11-15T13:51:46;2.80;;;1.80;;
44366;SDS011;30086;57.660;12.000;2022-11-15T13:54:35;3.40;;;1.88;;
44366;SDS011;30086;57.660;12.000;2022-11-15T13:57:19;2.63;;;1.70;;
44366;SDS011;30086;57.660;12.000;2022-11-15T14:02:17;2.70;;;1.90;;
44366;SDS011;30086;57.660;12.000;2022-11-15T14:04:51;4.50;;;1.67;;
44366;SDS011;30086;57.660;12.000;2022-11-15T14:07:36;2.30;;;1.52;;
44366;SDS011;30086;57.660;12.000;2022-11-15T14:10:32;3.80;;;2.00;;
44366;SDS011;30086;57.660;12.000;2022-11-15T14:13:01;2.13;;;1.70;;
44366;SDS011;30086;57.660;12.000;2022-11-15T14:15:35;3.58;;;1.60;;
44366;SDS011;30086;57.660;12.000;2022-11-15T14:18:02;3.70;;;1.95;;
44366;SDS011;30086;57.660;12.000;2022-11-15T14:20:34;3.72;;;1.67;;
44366;SDS011;30086;57.660;12.000;2022-11-15T14:23:04;2.25;;;1.50;;
44366;SDS011;30086;57.660;12.000;2022-11-15T14:25:37;4.80;;;2.05;;
44366;SDS011;30086;57.660;12.000;2022-11-15T14:28:28;3.35;;;2.00;;
44366;SDS011;30086;57.660;12.000;2022-11-15T14:30:59;6.22;;;1.73;;
44366;SDS011;30086;57.660;12.000;2022-11-15T14:33:35;1.95;;;1.40;;
44366;SDS011;30086;57.660;12.000;2022-11-15T14:36:13;4.57;;;1.40;;
44366;SDS011;30086;57.660;12.000;2022-11-15T14:38:39;1.50;;;1.00;;
44366;SDS011;30086;57.660;12.000;2022-11-15T14:41:17;1.80;;;0.98;;
44366;SDS011;30086;57.660;12.000;2022-11-15T14:43:45;1.60;;;1.20;;
44366;SDS011;30086;57.660;12.000;2022-11-15T14:46:15;1.50;;;1.02;;
44366;SDS011;30086;57.660;12.000;2022-11-15T14:48:49;1.75;;;1.10;;
44366;SDS011;30086;57.660;12.000;2022-11-15T14:51:16;2.03;;;1.30;;
44366;SDS011;30086;57.660;12.000;2022-11-15T14:53:46;1.95;;;1.10;;
44366;SDS011;30086;57.660;12.000;2022-11-15T14:56:12;1.48;;;0.90;;
44366;SDS011;30086;57.660;12.000;2022-11-15T14:58:55;5.40;;;1.50;;
44366;SDS011;30086;57.660;12.000;2022-11-15T15:01:25;1.58;;;1.13;;
44366;SDS011;30086;57.660;12.000;2022-11-15T15:03:53;1.60;;;1.30;;
44366;SDS011;30086;57.660;12.000;2022-11-15T15:06:23;1.30;;;1.00;;
44366;SDS011;30086;57.660;12.000;2022-11-15T15:08:50;2.55;;;1.65;;
44366;SDS011;30086;57.660;12.000;2022-11-15T15:11:26;2.67;;;1.25;;
44366;SDS011;30086;57.660;12.000;2022-11-15T15:14:02;4.20;;;1.05;;
44366;SDS011;30086;57.660;12.000;2022-11-15T15:16:29;2.20;;;1.27;;
44366;SDS011;30086;57.660;12.000;2022-11-15T15:18:55;1.10;;;0.80;;
44366;SDS011;30086;57.660;12.000;2022-11-15T15:21:28;2.03;;;0.90;;
44366;SDS011;30086;57.660;12.000;2022-11-15T15:24:01;1.20;;;1.00;;
44366;SDS011;30086;57.660;12.000;2022-11-15T15:26:28;4.03;;;1.17;;
44366;SDS011;30086;57.660;12.000;2022-11-15T15:29:01;1.98;;;0.90;;
44366;SDS011;30086;57.660;12.000;2022-11-15T15:31:28;3.20;;;0.90;;
44366;SDS011;30086;57.660;12.000;2022-11-15T15:33:54;2.55;;;0.80;;
44366;SDS011;30086;57.660;12.000;2022-11-15T15:36:21;5.07;;;0.95;;
44366;SDS011;30086;57.660;12.000;2022-11-15T15:38:47;2.50;;;0.68;;
44366;SDS011;30086;57.660;12.000;2022-11-15T15:41:14;1.23;;;0.65;;
44366;SDS011;30086;57.660;12.000;2022-11-15T15:43:41;1.60;;;0.75;;
44366;SDS011;30086;57.660;12.000;2022-11-15T15:46:30;1.42;;;0.65;;
44366;SDS011;30086;57.660;12.000;2022-11-15T15:49:07;0.52;;;0.45;;
44366;SDS011;30086;57.660;12.000;2022-11-15T15:51:45;1.88;;;1.38;;
44366;SDS011;30086;57.660;12.000;2022-11-15T15:54:14;1.63;;;0.50;;
44366;SDS011;30086;57.660;12.000;2022-11-15T15:56:55;1.58;;;1.48;;
44366;SDS011;30086;57.660;12.000;2022-11-15T15:59:24;0.88;;;0.30;;
44366;SDS011;30086;57.660;12.000;2022-11-15T16:01:59;1.75;;;0.30;;
44366;SDS011;30086;57.660;12.000;2022-11-15T16:04:27;1.55;;;0.35;;
44366;SDS011;30086;57.660;12.000;2022-11-15T16:06:58;0.65;;;0.50;;
44366;SDS011;30086;57.660;12.000;2022-11-15T16:09:35;0.85;;;0.75;;
44366;SDS011;30086;57.660;12.000;2022-11-15T16:12:36;1.50;;;0.55;;
44366;SDS011;30086;57.660;12.000;2022-11-15T16:15:07;0.52;;;0.40;;
44366;SDS011;30086;57.660;12.000;2022-11-15T16:17:40;0.57;;;0.25;;
44366;SDS011;30086;57.660;12.000;2022-11-15T16:20:08;2.85;;;0.30;;
44366;SDS011;30086;57.660;12.000;2022-11-15T16:22:40;1.83;;;0.45;;
44366;SDS011;30086;57.660;12.000;2022-11-15T16:25:11;0.63;;;0.30;;
44366;SDS011;30086;57.660;12.000;2022-11-15T16:27:46;1.35;;;0.30;;
44366;SDS011;30086;57.660;12.000;2022-11-15T16:30:15;2.10;;;0.47;;
44366;SDS011;30086;57.660;12.000;2022-11-15T16:32:43;0.30;;;0.30;;
44366;SDS011;30086;57.660;12.000;2022-11-15T16:35:52;0.60;;;0.30;;
44366;SDS011;30086;57.660;12.000;2022-11-15T16:38:18;0.30;;;0.30;;
44366;SDS011;30086;57.660;12.000;2022-11-15T16:40:47;0.43;;;0.30;;
44366;SDS011;30086;57.660;12.000;2022-11-15T16:43:15;0.30;;;0.30;;
44366;SDS011;30086;57.660;12.000;2022-11-15T16:45:46;0.30;;;0.30;;
44366;SDS011;30086;57.660;12.000;2022-11-15T16:48:26;0.73;;;0.40;;
44366;SDS011;30086;57.660;12.000;2022-11-15T16:50:54;1.60;;;0.40;;
44366;SDS011;30086;57.660;12.000;2022-11-15T16:53:23;0.43;;;0.25;;
44366;SDS011;30086;57.660;12.000;2022-11-15T16:55:49;0.38;;;0.38;;
44366;SDS011;30086;57.660;12.000;2022-11-15T16:58:15;1.15;;;0.30;;
44366;SDS011;30086;57.660;12.000;2022-11-15T17:00:49;1.38;;;0.40;;
44366;SDS011;30086;57.660;12.000;2022-11-15T17:03:18;1.85;;;0.60;;
44366;SDS011;30086;57.660;12.000;2022-11-15T17:05:44;3.42;;;0.50;;
44366;SDS011;30086;57.660;12.000;2022-11-15T17:08:10;1.85;;;0.50;;
44366;SDS011;30086;57.660;12.000;2022-11-15T17:10:40;2.38;;;0.45;;
44366;SDS011;30086;57.660;12.000;2022-11-15T17:13:09;2.40;;;0.60;;